Jamaica Beach, Texas
Current Conditions -  °F | °C
As of 2:52 PM on Friday 28 Nov 2014 (Local Time) from KGLS Reporting Station
Broken Clouds Broken Clouds  
Wind Chill: 69°   Ceiling: 4200
Heat Index: 69°   Visibility: 10mi
Dew Point: 60°   Wind: 10mph
Humidity: 73%   Direction: 150°SSE
Pressure: 30.22"   Gusts: NA
Location:  29.3093°N, 94.7816°W
Report Text: KGLS 282052Z 15009KT 10SM BKN042 BKN055 21/16 A3022 RMK AO2 SLP233 T02060156 56027
Loading
Personal Weather Stations






























Interactive Weather Map New forecast layout! Learn more

10-Day Weather Forecast

Advertisements
Track Severe Weather on mobile